createdAt,value
2019-05-19T00:06:19.621Z,45.0
2019-05-19T00:16:33.577Z,45.1
2019-05-19T00:26:47.398Z,45.3
2019-05-19T00:37:01.859Z,45.3
2019-05-19T00:47:16.519Z,45.3
2019-05-19T00:57:30.096Z,45.5
2019-05-19T01:07:44.015Z,45.6
2019-05-19T01:17:58.078Z,45.6
2019-05-19T01:28:42.871Z,45.6
2019-05-19T01:38:56.672Z,45.5
2019-05-19T01:49:10.910Z,45.7
2019-05-19T01:59:24.668Z,45.7
2019-05-19T02:10:09.303Z,45.8
2019-05-19T02:20:31.981Z,45.8
2019-05-19T02:30:35.455Z,45.8
2019-05-19T02:40:49.716Z,46.0
2019-05-19T02:51:03.386Z,45.7
2019-05-19T03:01:14.605Z,45.7
2019-05-19T03:12:00.046Z,46.0
2019-05-19T03:22:12.172Z,45.8
2019-05-19T03:32:24.286Z,45.8
2019-05-19T03:42:35.402Z,45.8
2019-05-19T03:52:47.860Z,45.7
2019-05-19T04:03:33.348Z,45.4
2019-05-19T04:13:45.288Z,45.3
2019-05-19T04:24:30.926Z,45.1
2019-05-19T04:35:16.691Z,44.8
2019-05-19T04:46:02.526Z,45.0
2019-05-19T04:56:14.110Z,45.1
2019-05-19T05:06:27.580Z,45.5
2019-05-19T05:16:42.375Z,45.6
2019-05-19T05:26:56.013Z,45.9
2019-05-19T05:37:06.976Z,46.2
2019-05-19T05:47:20.261Z,46.1
2019-05-19T05:57:34.147Z,46.9
2019-05-19T06:07:48.462Z,46.4
2019-05-19T06:18:02.229Z,47.6
2019-05-19T06:28:16.126Z,47.2
2019-05-19T06:38:30.195Z,47.2
2019-05-19T06:48:44.154Z,47.2
2019-05-19T06:58:58.239Z,46.8
2019-05-19T07:09:12.793Z,46.4
2019-05-19T07:19:27.027Z,46.7
2019-05-19T07:29:41.277Z,48.5
2019-05-19T07:39:55.429Z,45.2
2019-05-19T07:50:09.939Z,43.7
2019-05-19T08:00:23.939Z,42.5
2019-05-19T08:10:38.676Z,42.7
2019-05-19T08:20:51.989Z,42.9
2019-05-19T08:31:03.706Z,43.5
2019-05-19T08:42:04.477Z,42.5
2019-05-19T08:52:18.462Z,42.5
2019-05-19T09:02:33.490Z,43.4
2019-05-19T09:12:47.898Z,41.5
2019-05-19T09:23:31.821Z,39.0
2019-05-19T09:33:45.832Z,36.5
2019-05-19T09:44:32.914Z,35.3
2019-05-19T09:54:48.098Z,32.7
2019-05-19T10:05:35.223Z,32.1
2019-05-19T10:15:51.403Z,31.3
2019-05-19T10:26:04.956Z,30.9
2019-05-19T10:36:18.073Z,29.8
2019-05-19T10:47:05.148Z,29.7
2019-05-19T10:58:34.164Z,28.1
2019-05-19T11:09:55.808Z,28.0
2019-05-19T11:20:48.062Z,28.8
2019-05-19T11:31:05.020Z,28.4
2019-05-19T11:41:18.709Z,26.2
2019-05-19T11:51:48.244Z,26.8
2019-05-19T12:02:03.386Z,27.9
2019-05-19T12:12:51.889Z,27.2
2019-05-19T12:23:24.607Z,26.0
2019-05-19T12:33:49.616Z,25.9
2019-05-19T12:43:51.708Z,27.1
2019-05-19T13:02:42.790Z,27.7
2019-05-19T13:46:23.360Z,31.7
2019-05-19T13:56:37.285Z,32.7
2019-05-19T14:06:51.094Z,33.2
2019-05-19T14:21:37.603Z,32.8
2019-05-19T14:33:09.984Z,30.9
2019-05-19T14:44:21.257Z,29.5
2019-05-19T14:55:14.982Z,29.1
2019-05-19T15:06:11.135Z,30.2
2019-05-19T15:16:25.331Z,31.5
2019-05-19T15:28:26.333Z,32.1
2019-05-19T15:39:15.118Z,32.8
2019-05-19T15:51:07.332Z,33.7
2019-05-19T16:02:10.274Z,35.7
2019-05-19T16:13:04.771Z,37.6
2019-05-19T16:24:19.838Z,38.2
2019-05-19T17:11:18.021Z,41.2
2019-05-19T17:48:25.958Z,43.2
2019-05-19T17:58:32.813Z,43.9
2019-05-19T18:08:48.023Z,43.9
2019-05-19T18:19:02.257Z,44.2
2019-05-19T18:29:30.267Z,44.3
2019-05-19T18:39:33.585Z,44.5
2019-05-19T18:50:24.756Z,45.8
2019-05-19T19:01:19.974Z,45.0
2019-05-19T19:11:37.467Z,47.8
2019-05-19T19:21:50.728Z,49.3
2019-05-19T19:32:05.348Z,47.9
2019-05-19T19:42:50.486Z,48.4
2019-05-19T19:53:36.519Z,49.0
2019-05-19T20:04:22.974Z,48.6
2019-05-19T20:14:38.589Z,49.6
2019-05-19T20:25:23.393Z,51.3
2019-05-19T20:36:09.011Z,49.3
2019-05-19T20:46:23.364Z,51.3
2019-05-19T20:56:37.500Z,51.1
2019-05-19T21:06:50.184Z,51.8
2019-05-19T21:17:35.121Z,50.6
2019-05-19T21:28:20.195Z,50.9
2019-05-19T21:39:06.012Z,51.0
2019-05-19T21:49:53.712Z,50.8
2019-05-19T22:00:05.585Z,50.6
2019-05-19T22:10:19.478Z,50.3
2019-05-19T22:20:33.953Z,50.1
2019-05-19T22:30:47.949Z,49.8
2019-05-19T22:41:01.823Z,49.8
2019-05-19T22:51:16.351Z,49.7
2019-05-19T23:01:30.724Z,49.4
2019-05-19T23:12:15.868Z,49.0
2019-05-19T23:22:29.110Z,49.2
2019-05-19T23:32:40.974Z,48.8
2019-05-19T23:42:54.781Z,49.0
2019-05-19T23:53:08.811Z,48.5
